createdAt,value
2019-02-14T00:01:09.022Z,101303.20
2019-02-14T00:06:14.382Z,101311.61
2019-02-14T00:11:19.640Z,101305.86
2019-02-14T00:16:24.987Z,101306.75
2019-02-14T00:21:30.375Z,101304.13
2019-02-14T00:26:35.691Z,101304.58
2019-02-14T00:31:40.970Z,101300.14
2019-02-14T00:36:46.195Z,101289.53
2019-02-14T00:41:51.575Z,101289.98
2019-02-14T00:46:56.680Z,101283.35
2019-02-14T00:52:02.032Z,101274.96
2019-02-14T00:57:07.295Z,101275.40
2019-02-14T01:02:12.766Z,101290.44
2019-02-14T01:07:17.960Z,101288.20
2019-02-14T01:12:23.238Z,101273.60
2019-02-14T01:17:28.521Z,101273.60
2019-02-14T01:22:34.275Z,101276.70
2019-02-14T01:27:39.598Z,101273.61
2019-02-14T01:32:44.920Z,101267.87
2019-02-14T01:37:50.147Z,101266.09
2019-02-14T01:42:55.482Z,101264.36
2019-02-14T01:48:00.737Z,101265.22
2019-02-14T01:53:06.138Z,101269.23
2019-02-14T01:58:11.570Z,101252.84
2019-02-14T02:03:16.975Z,101255.95
2019-02-14T02:08:22.962Z,101247.13
2019-02-14T02:13:28.364Z,101253.31
2019-02-14T02:18:33.860Z,101251.10
2019-02-14T02:23:39.125Z,101249.34
2019-02-14T02:28:44.295Z,101247.59
2019-02-14T02:33:49.620Z,101253.77
2019-02-14T02:38:54.870Z,101251.55
2019-02-14T02:44:00.187Z,101248.91
2019-02-14T02:49:05.662Z,101240.50
2019-02-14T02:54:10.865Z,101245.34
2019-02-14T02:59:16.039Z,101236.51
2019-02-14T03:04:21.317Z,101234.73
2019-02-14T03:09:26.599Z,101229.41
2019-02-14T03:14:31.904Z,101224.56
2019-02-14T03:19:37.219Z,101232.92
2019-02-14T03:24:42.503Z,101223.66
2019-02-14T03:29:47.735Z,101228.97
2019-02-14T03:34:52.882Z,101221.01
2019-02-14T03:39:58.060Z,101212.59
2019-02-14T03:45:03.270Z,101210.41
2019-02-14T03:50:08.960Z,101212.14
2019-02-14T03:55:14.098Z,101214.80
2019-02-14T04:00:19.599Z,101209.05
2019-02-14T04:05:24.824Z,101199.35
2019-02-14T04:10:30.185Z,101193.61
2019-02-14T04:15:35.442Z,101193.17
2019-02-14T04:20:40.675Z,101190.55
2019-02-14T04:25:45.899Z,101194.98
2019-02-14T04:30:51.179Z,101184.38
2019-02-14T04:35:56.417Z,101191.43
2019-02-14T04:41:01.614Z,101191.00
2019-02-14T04:46:06.751Z,101186.59
2019-02-14T04:51:12.127Z,101191.45
2019-02-14T04:56:17.340Z,101196.30
2019-02-14T05:01:23.215Z,101192.33
2019-02-14T05:06:28.446Z,101189.67
2019-02-14T05:11:33.729Z,101189.67
2019-02-14T05:16:39.078Z,101190.13
2019-02-14T05:21:44.329Z,101186.59
2019-02-14T05:26:49.519Z,101183.03
2019-02-14T05:31:54.940Z,101185.26
2019-02-14T05:37:00.125Z,101185.27
2019-02-14T05:42:05.332Z,101185.72
2019-02-14T05:47:10.598Z,101192.76
2019-02-14T05:52:15.947Z,101193.66
2019-02-14T05:57:21.257Z,101199.38
2019-02-14T06:02:26.566Z,101194.09
2019-02-14T06:07:31.807Z,101194.55
2019-02-14T06:12:37.035Z,101189.67
2019-02-14T06:17:42.219Z,101190.13
2019-02-14T06:22:47.554Z,101193.18
2019-02-14T06:27:52.680Z,101187.84
2019-02-14T06:32:57.970Z,101189.57
2019-02-14T06:38:03.156Z,101187.75
2019-02-14T06:43:08.381Z,101182.39
2019-02-14T06:48:13.819Z,101186.77
2019-02-14T06:53:19.058Z,101194.25
2019-02-14T06:58:24.336Z,101200.38
2019-02-14T07:03:29.539Z,101193.73
2019-02-14T07:08:34.814Z,101186.18
2019-02-14T07:13:40.019Z,101194.56
2019-02-14T07:18:45.195Z,101197.59
2019-02-14T07:23:50.529Z,101205.58
2019-02-14T07:28:55.755Z,101206.90
2019-02-14T07:34:01.015Z,101209.98
2019-02-14T07:39:08.254Z,101211.73
2019-02-14T07:44:16.439Z,101221.09
2019-02-14T07:49:21.624Z,101221.58
2019-02-14T07:54:26.910Z,101222.95
2019-02-14T07:59:32.199Z,101218.50
2019-02-14T08:04:37.400Z,101229.60
2019-02-14T08:09:42.589Z,101237.62
2019-02-14T08:14:47.945Z,101232.73
2019-02-14T08:19:53.330Z,101236.29
2019-02-14T08:24:58.658Z,101236.29
2019-02-14T08:30:04.029Z,101236.72
2019-02-14T08:35:10.385Z,101247.30
2019-02-14T08:40:19.476Z,101247.73
2019-02-14T08:45:24.789Z,101249.91
2019-02-14T08:50:30.044Z,101251.23
2019-02-14T08:55:35.440Z,101263.13
2019-02-14T09:00:40.689Z,101252.78
2019-02-14T09:05:46.053Z,101250.55
2019-02-14T09:10:51.193Z,101241.64
2019-02-14T09:15:56.619Z,101235.88
2019-02-14T09:21:01.960Z,101231.05
2019-02-14T09:26:07.246Z,101236.33
2019-02-14T09:31:12.457Z,101237.17
2019-02-14T09:36:17.754Z,101235.30
2019-02-14T09:41:24.574Z,101238.05
2019-02-14T09:46:29.926Z,101234.84
2019-02-14T09:51:35.129Z,101235.38
2019-02-14T09:56:40.434Z,101256.25
2019-02-14T10:01:45.568Z,101252.78
2019-02-14T10:06:50.849Z,101234.11
2019-02-14T10:11:56.151Z,101251.14
2019-02-14T10:17:01.456Z,101253.69
2019-02-14T10:22:06.870Z,101242.60
2019-02-14T10:27:12.162Z,101236.96
2019-02-14T10:32:17.325Z,101248.34
2019-02-14T10:37:22.649Z,101241.98
2019-02-14T10:42:27.879Z,101249.00
2019-02-14T10:47:33.201Z,101238.27
2019-02-14T10:52:38.351Z,101234.84
2019-02-14T10:57:43.578Z,101231.73
2019-02-14T11:02:50.001Z,101229.09
2019-02-14T11:07:55.180Z,101226.54
2019-02-14T11:13:00.399Z,101222.63
2019-02-14T11:18:05.808Z,101217.44
2019-02-14T11:23:11.164Z,101231.47
2019-02-14T11:28:16.448Z,101218.18
2019-02-14T11:33:21.630Z,101216.80
2019-02-14T11:38:26.884Z,101215.03
2019-02-14T11:43:32.526Z,101218.74
2019-02-14T11:48:37.799Z,101218.17
2019-02-14T11:53:43.095Z,101215.66
2019-02-14T11:58:48.479Z,101207.85
2019-02-14T12:03:53.751Z,101213.83
2019-02-14T12:09:00.478Z,101204.81
2019-02-14T12:14:06.039Z,101190.32
2019-02-14T12:19:11.343Z,101196.37
2019-02-14T12:24:16.604Z,101185.58
2019-02-14T12:29:21.794Z,101181.31
2019-02-14T12:34:27.214Z,101180.08
2019-02-14T12:39:32.391Z,101163.57
2019-02-14T12:44:37.886Z,101158.58
2019-02-14T12:49:43.082Z,101153.46
2019-02-14T12:54:48.317Z,101148.90
2019-02-14T12:59:54.936Z,101144.98
2019-02-14T13:05:00.216Z,101138.97
2019-02-14T13:10:05.889Z,101145.98
2019-02-14T13:15:14.077Z,101133.62
2019-02-14T13:20:19.280Z,101132.20
2019-02-14T13:25:24.486Z,101133.54
2019-02-14T13:30:29.632Z,101125.19
2019-02-14T13:35:34.854Z,101132.83
2019-02-14T13:40:40.066Z,101114.74
2019-02-14T13:45:45.279Z,101113.98
2019-02-14T13:50:50.494Z,101100.21
2019-02-14T13:55:55.760Z,101092.55
2019-02-14T14:01:00.971Z,101100.09
2019-02-14T14:06:10.802Z,101096.08
2019-02-14T14:11:15.951Z,101080.66
2019-02-14T14:16:21.270Z,101093.44
2019-02-14T14:21:26.741Z,101073.27
2019-02-14T14:26:32.012Z,101075.48
2019-02-14T14:31:37.199Z,101069.48
2019-02-14T14:36:42.580Z,101069.12
2019-02-14T14:41:47.832Z,101063.60
2019-02-14T14:46:57.551Z,101050.98
2019-02-14T14:52:02.874Z,101037.26
2019-02-14T14:57:08.315Z,101039.41
2019-02-14T15:02:13.506Z,101038.17
2019-02-14T15:07:18.889Z,101037.32
2019-02-14T15:12:25.794Z,101029.67
2019-02-14T15:17:33.437Z,101029.48
2019-02-14T15:22:38.636Z,101016.38
2019-02-14T15:27:43.905Z,101011.01
2019-02-14T15:32:49.345Z,101018.58
2019-02-14T15:37:54.700Z,101016.92
2019-02-14T15:42:59.939Z,101013.50
2019-02-14T15:48:05.364Z,101009.11
2019-02-14T15:53:10.648Z,101011.36
2019-02-14T15:58:16.200Z,101009.14
2019-02-14T16:03:21.442Z,101004.54
2019-02-14T16:08:26.646Z,100998.38
2019-02-14T16:13:33.683Z,100991.47
2019-02-14T16:18:39.066Z,100995.65
2019-02-14T16:23:44.670Z,100986.20
2019-02-14T16:28:49.864Z,100992.42
2019-02-14T16:33:55.060Z,100984.94
2019-02-14T16:39:01.425Z,100986.70
2019-02-14T16:44:06.834Z,100981.53
2019-02-14T16:49:12.185Z,100986.07
2019-02-14T16:54:17.491Z,100979.64
2019-02-14T16:59:22.754Z,100978.44
2019-02-14T17:04:30.495Z,100974.04
2019-02-14T17:09:35.735Z,100961.81
2019-02-14T17:14:41.010Z,100971.67
2019-02-14T17:19:46.385Z,100974.02
2019-02-14T17:24:53.026Z,100972.34
2019-02-14T17:29:58.201Z,100981.72
2019-02-14T17:35:03.579Z,100969.86
2019-02-14T17:40:09.541Z,100973.92
2019-02-14T17:45:15.579Z,100969.95
2019-02-14T17:50:20.797Z,100974.85
2019-02-14T17:55:28.308Z,100964.30
2019-02-14T18:00:33.495Z,100973.59
2019-02-14T18:05:38.911Z,100980.23
2019-02-14T18:10:44.301Z,100982.46
2019-02-14T18:15:49.554Z,100984.75
2019-02-14T18:20:54.832Z,100978.14
2019-02-14T18:26:00.105Z,100987.94
2019-02-14T18:31:05.494Z,100986.63
2019-02-14T18:36:13.906Z,100984.02
2019-02-14T18:41:22.147Z,100976.06
2019-02-14T18:46:27.310Z,100970.33
2019-02-14T18:51:32.715Z,100968.96
2019-02-14T18:56:37.906Z,100972.52
2019-02-14T19:01:43.129Z,100965.88
2019-02-14T19:06:48.315Z,100958.83
2019-02-14T19:11:53.535Z,100953.52
2019-02-14T19:16:58.954Z,100944.70
2019-02-14T19:22:04.192Z,100958.39
2019-02-14T19:27:09.414Z,100951.76
2019-02-14T19:32:14.828Z,100942.47
2019-02-14T19:37:20.129Z,100957.50
2019-02-14T19:42:25.364Z,100945.13
2019-02-14T19:47:30.631Z,100959.25
2019-02-14T19:52:36.077Z,100952.61
2019-02-14T19:57:42.552Z,100950.86
2019-02-14T20:02:47.834Z,100953.09
2019-02-14T20:07:53.038Z,100949.53
2019-02-14T20:12:58.360Z,100940.67
2019-02-14T20:18:03.741Z,100940.20
2019-02-14T20:23:09.099Z,100937.12
2019-02-14T20:28:14.594Z,100923.38
2019-02-14T20:33:19.995Z,100919.39
2019-02-14T20:38:26.214Z,100929.99
2019-02-14T20:43:31.545Z,100939.70
2019-02-14T20:48:36.695Z,100929.09
2019-02-14T20:53:42.254Z,100927.83
2019-02-14T20:58:47.574Z,100919.44
2019-02-14T21:03:52.989Z,100927.41
2019-02-14T21:08:59.204Z,100926.56
2019-02-14T21:14:04.467Z,100921.26
2019-02-14T21:19:09.669Z,100918.13
2019-02-14T21:24:15.276Z,100908.84
2019-02-14T21:29:20.501Z,100918.55
2019-02-14T21:34:25.879Z,100910.16
2019-02-14T21:39:31.175Z,100907.93
2019-02-14T21:44:36.587Z,100909.73
2019-02-14T21:49:41.822Z,100912.38
2019-02-14T21:54:47.275Z,100903.09
2019-02-14T21:59:52.380Z,100896.41
2019-02-14T22:04:57.527Z,100907.87
2019-02-14T22:10:02.681Z,100897.72
2019-02-14T22:15:10.245Z,100899.46
2019-02-14T22:20:15.483Z,100902.06
2019-02-14T22:25:20.721Z,100904.66
2019-02-14T22:30:26.129Z,100894.92
2019-02-14T22:35:31.410Z,100897.99
2019-02-14T22:40:36.683Z,100899.24
2019-02-14T22:45:42.040Z,100898.75
2019-02-14T22:50:47.315Z,100895.66
2019-02-14T22:55:53.144Z,100888.56
2019-02-14T23:01:00.771Z,100891.69
2019-02-14T23:06:06.035Z,100889.94
2019-02-14T23:11:11.230Z,100886.41
2019-02-14T23:16:16.610Z,100878.91
2019-02-14T23:21:21.775Z,100882.88
2019-02-14T23:26:27.075Z,100887.70
2019-02-14T23:31:32.341Z,100888.13
2019-02-14T23:36:37.531Z,100904.48
2019-02-14T23:41:42.683Z,100903.16
2019-02-14T23:46:47.894Z,100894.27
2019-02-14T23:51:53.348Z,100897.81
2019-02-14T23:56:59.803Z,100899.59
